createdAt,value
2018-05-07T00:01:39.422Z,3.80
2018-05-07T00:04:05.497Z,3.60
2018-05-07T00:06:31.525Z,3.70
2018-05-07T00:08:57.838Z,4.07
2018-05-07T00:11:23.969Z,4.03
2018-05-07T00:13:50.015Z,4.30
2018-05-07T00:16:16.042Z,4.43
2018-05-07T00:18:42.414Z,4.10
2018-05-07T00:21:08.430Z,4.50
2018-05-07T00:23:34.493Z,4.23
2018-05-07T00:26:00.517Z,4.40
2018-05-07T00:28:26.549Z,4.33
2018-05-07T00:30:53.270Z,4.70
2018-05-07T00:33:19.354Z,4.63
2018-05-07T00:35:45.813Z,4.60
2018-05-07T00:38:11.846Z,5.33
2018-05-07T00:40:37.877Z,4.57
2018-05-07T00:43:04.409Z,4.20
2018-05-07T00:45:30.450Z,4.50
2018-05-07T00:47:56.579Z,4.70
2018-05-07T00:50:22.592Z,4.43
2018-05-07T00:52:48.621Z,4.77
2018-05-07T00:55:20.806Z,5.00
2018-05-07T00:57:46.833Z,4.67
2018-05-07T01:00:12.897Z,4.43
2018-05-07T01:02:38.917Z,4.50
2018-05-07T01:05:05.191Z,4.73
2018-05-07T01:07:31.261Z,4.67
2018-05-07T01:09:58.029Z,4.47
2018-05-07T01:12:24.352Z,4.50
2018-05-07T01:14:50.725Z,4.27
2018-05-07T01:17:16.776Z,4.80
2018-05-07T01:19:42.823Z,4.20
2018-05-07T01:22:09.797Z,4.90
2018-05-07T01:24:35.969Z,4.43
2018-05-07T01:27:02.071Z,4.77
2018-05-07T01:29:28.083Z,4.63
2018-05-07T01:31:54.304Z,4.77
2018-05-07T01:34:20.386Z,4.33
2018-05-07T01:36:46.498Z,5.17
2018-05-07T01:39:12.501Z,5.07
2018-05-07T01:41:38.510Z,4.97
2018-05-07T01:44:04.619Z,5.10
2018-05-07T01:46:30.692Z,5.13
2018-05-07T01:48:56.764Z,5.43
2018-05-07T01:51:22.825Z,4.80
2018-05-07T01:53:48.993Z,5.67
2018-05-07T01:56:15.013Z,4.93
2018-05-07T01:58:41.037Z,5.77
2018-05-07T02:01:07.098Z,5.57
2018-05-07T02:03:33.197Z,5.13
2018-05-07T02:05:59.285Z,5.20
2018-05-07T02:08:25.332Z,5.47
2018-05-07T02:10:51.362Z,5.20
2018-05-07T02:13:17.413Z,5.80
2018-05-07T02:15:43.456Z,5.40
2018-05-07T02:18:09.475Z,5.00
2018-05-07T02:20:35.553Z,5.13
2018-05-07T02:23:01.570Z,5.30
2018-05-07T02:25:27.589Z,5.87
2018-05-07T02:27:53.741Z,5.20
2018-05-07T02:30:20.223Z,5.07
2018-05-07T02:32:46.750Z,5.07
2018-05-07T02:35:12.785Z,6.00
2018-05-07T02:37:38.862Z,5.47
2018-05-07T02:40:05.764Z,5.53
2018-05-07T02:42:31.793Z,5.20
2018-05-07T02:44:58.301Z,5.40
2018-05-07T02:47:24.333Z,5.73
2018-05-07T02:49:50.506Z,5.33
2018-05-07T02:52:16.578Z,5.20
2018-05-07T02:54:42.641Z,5.37
2018-05-07T02:57:08.687Z,5.10
2018-05-07T02:59:34.722Z,5.27
2018-05-07T03:02:00.742Z,5.77
2018-05-07T03:04:27.545Z,5.47
2018-05-07T03:06:53.649Z,5.20
2018-05-07T03:09:19.711Z,5.30
2018-05-07T03:11:45.825Z,4.73
2018-05-07T03:14:11.843Z,5.40
2018-05-07T03:16:37.881Z,5.30
2018-05-07T03:19:03.909Z,5.60
2018-05-07T03:21:30.826Z,5.53
2018-05-07T03:23:56.845Z,5.33
2018-05-07T03:26:22.893Z,5.27
2018-05-07T03:28:49.229Z,5.57
2018-05-07T03:31:15.249Z,5.10
2018-05-07T03:33:41.305Z,6.00
2018-05-07T03:36:08.081Z,5.57
2018-05-07T03:38:34.109Z,5.47
2018-05-07T03:41:00.184Z,5.63
2018-05-07T03:43:26.229Z,5.30
2018-05-07T03:45:53.170Z,5.23
2018-05-07T03:48:19.236Z,5.27
2018-05-07T03:50:45.289Z,5.33
2018-05-07T03:53:11.636Z,6.10
2018-05-07T03:55:37.678Z,5.80
2018-05-07T03:58:03.700Z,5.40
2018-05-07T04:00:30.165Z,5.13
2018-05-07T04:02:56.253Z,5.10
2018-05-07T04:05:22.330Z,5.00
2018-05-07T04:07:48.525Z,5.97
2018-05-07T04:10:15.300Z,5.67
2018-05-07T04:12:41.332Z,5.77
2018-05-07T04:15:07.383Z,6.07
2018-05-07T04:17:46.205Z,5.90
2018-05-07T04:20:24.753Z,5.33
2018-05-07T04:23:02.989Z,5.30
2018-05-07T04:25:29.029Z,5.73
2018-05-07T04:27:55.087Z,5.77
2018-05-07T04:30:21.265Z,5.63
2018-05-07T04:32:47.285Z,5.47
2018-05-07T04:35:13.317Z,6.47
2018-05-07T04:37:39.423Z,5.80
2018-05-07T04:40:05.500Z,5.83
2018-05-07T04:42:31.609Z,5.60
2018-05-07T04:44:57.634Z,5.80
2018-05-07T04:47:24.157Z,6.00
2018-05-07T04:49:50.786Z,5.23
2018-05-07T04:52:16.809Z,5.73
2018-05-07T04:54:42.907Z,5.47
2018-05-07T04:57:09.699Z,5.83
2018-05-07T04:59:35.732Z,5.70
2018-05-07T05:02:01.752Z,5.90
2018-05-07T05:04:27.789Z,6.27
2018-05-07T05:06:53.893Z,6.13
2018-05-07T05:09:19.941Z,5.47
2018-05-07T05:11:45.954Z,5.40
2018-05-07T05:14:11.977Z,6.00
2018-05-07T05:16:38.017Z,5.23
2018-05-07T05:19:04.120Z,5.77
2018-05-07T05:21:30.333Z,5.53
2018-05-07T05:23:56.309Z,5.93
2018-05-07T05:26:22.324Z,5.70
2018-05-07T05:28:48.333Z,6.20
2018-05-07T05:31:14.425Z,5.67
2018-05-07T05:33:40.501Z,5.67
2018-05-07T05:36:06.571Z,6.60
2018-05-07T05:38:32.601Z,5.93
2018-05-07T05:40:58.618Z,6.00
2018-05-07T05:43:25.278Z,5.47
2018-05-07T05:45:51.317Z,5.50
2018-05-07T05:48:17.325Z,5.90
2018-05-07T05:50:43.337Z,6.20
2018-05-07T05:53:09.469Z,5.90
2018-05-07T05:55:35.529Z,6.00
2018-05-07T05:58:01.590Z,5.63
2018-05-07T06:00:27.645Z,5.20
2018-05-07T06:02:54.789Z,5.57
2018-05-07T06:05:20.818Z,5.80
2018-05-07T06:07:46.885Z,5.67
2018-05-07T06:10:12.973Z,6.17
2018-05-07T06:12:39.088Z,6.07
2018-05-07T06:15:05.183Z,5.60
2018-05-07T06:17:31.966Z,5.50
2018-05-07T06:19:58.034Z,5.73
2018-05-07T06:22:24.853Z,5.17
2018-05-07T06:24:50.879Z,5.37
2018-05-07T06:27:16.919Z,5.40
2018-05-07T06:29:42.941Z,5.87
2018-05-07T06:32:09.034Z,5.47
2018-05-07T06:34:35.373Z,5.43
2018-05-07T06:37:01.394Z,5.43
2018-05-07T06:39:27.441Z,5.27
2018-05-07T06:41:54.859Z,5.33
2018-05-07T06:44:20.872Z,4.97
2018-05-07T06:46:46.950Z,5.00
2018-05-07T06:49:13.040Z,5.70
2018-05-07T06:51:39.077Z,5.40
2018-05-07T06:54:06.000Z,5.40
2018-05-07T06:56:32.025Z,5.37
2018-05-07T06:58:58.634Z,4.93
2018-05-07T07:01:24.688Z,5.47
2018-05-07T07:03:50.733Z,5.30
2018-05-07T07:06:17.140Z,5.20
2018-05-07T07:08:43.174Z,4.90
2018-05-07T07:11:09.249Z,5.17
2018-05-07T07:13:35.698Z,4.93
2018-05-07T07:16:01.741Z,5.43
2018-05-07T07:18:27.758Z,5.23
2018-05-07T07:20:53.809Z,5.17
2018-05-07T07:23:19.872Z,5.30
2018-05-07T07:25:45.910Z,4.93
2018-05-07T07:28:12.038Z,5.37
2018-05-07T07:30:37.953Z,5.10
2018-05-07T07:33:04.021Z,4.87
2018-05-07T07:35:30.106Z,5.60
2018-05-07T07:37:56.237Z,5.57
2018-05-07T07:40:22.972Z,5.40
2018-05-07T07:42:48.985Z,5.57
2018-05-07T07:45:15.002Z,5.70
2018-05-07T07:47:41.082Z,5.30
2018-05-07T07:50:07.153Z,5.40
2018-05-07T07:52:33.761Z,5.13
2018-05-07T07:54:59.789Z,5.40
2018-05-07T07:57:25.810Z,5.23
2018-05-07T07:59:51.873Z,5.33
2018-05-07T08:02:17.989Z,4.90
2018-05-07T08:04:44.006Z,4.73
2018-05-07T08:07:10.037Z,4.70
2018-05-07T08:09:36.101Z,4.77
2018-05-07T08:12:02.433Z,4.80
2018-05-07T08:14:28.377Z,5.20
2018-05-07T08:16:54.428Z,4.70
2018-05-07T08:19:20.477Z,4.50
2018-05-07T08:21:46.533Z,4.63
2018-05-07T08:24:13.193Z,4.60
2018-05-07T08:26:39.656Z,4.60
2018-05-07T08:29:05.728Z,4.00
2018-05-07T08:31:32.134Z,4.70
2018-05-07T08:33:58.176Z,4.50
2018-05-07T08:36:24.587Z,4.63
2018-05-07T08:38:50.552Z,4.70
2018-05-07T08:41:16.679Z,4.60
2018-05-07T08:43:42.729Z,4.40
2018-05-07T08:46:12.521Z,4.50
2018-05-07T08:48:38.664Z,4.30
2018-05-07T08:51:04.829Z,5.00
2018-05-07T08:53:30.734Z,3.80
2018-05-07T08:55:57.041Z,4.33
2018-05-07T08:58:23.077Z,4.20
2018-05-07T09:00:49.133Z,4.47
2018-05-07T09:03:15.165Z,4.37
2018-05-07T09:05:41.205Z,5.00
2018-05-07T09:08:08.010Z,4.97
2018-05-07T09:10:34.764Z,4.13
2018-05-07T09:13:01.090Z,4.13
2018-05-07T09:15:27.117Z,4.80
2018-05-07T09:17:53.523Z,4.30
2018-05-07T09:20:19.580Z,4.60
2018-05-07T09:22:45.668Z,4.70
2018-05-07T09:25:11.687Z,4.47
2018-05-07T09:27:37.757Z,4.03
2018-05-07T09:30:03.813Z,4.37
2018-05-07T09:32:29.857Z,4.50
2018-05-07T09:34:55.909Z,4.13
2018-05-07T09:37:21.980Z,4.07
2018-05-07T09:39:48.001Z,3.93
2018-05-07T09:42:14.067Z,3.40
2018-05-07T09:44:40.232Z,4.07
2018-05-07T09:47:06.344Z,4.30
2018-05-07T09:49:32.652Z,3.47
2018-05-07T09:51:59.417Z,3.87
2018-05-07T09:54:25.913Z,3.50
2018-05-07T09:56:54.954Z,3.53
2018-05-07T09:59:21.629Z,3.70
2018-05-07T10:01:47.734Z,3.60
2018-05-07T10:04:14.501Z,3.47
2018-05-07T10:06:40.567Z,3.33
2018-05-07T10:09:06.694Z,3.83
2018-05-07T10:11:32.716Z,3.63
2018-05-07T10:13:58.780Z,3.30
2018-05-07T10:16:24.821Z,3.93
2018-05-07T10:18:50.961Z,3.90
2018-05-07T10:21:16.998Z,2.80
2018-05-07T10:23:43.039Z,3.60
2018-05-07T10:26:09.117Z,2.53
2018-05-07T10:28:35.125Z,2.67
2018-05-07T10:31:01.268Z,2.30
2018-05-07T10:33:27.357Z,2.50
2018-05-07T10:35:53.661Z,2.50
2018-05-07T10:38:20.276Z,2.13
2018-05-07T10:40:46.300Z,2.50
2018-05-07T10:43:12.374Z,2.30
2018-05-07T10:45:39.157Z,2.13
2018-05-07T10:48:05.232Z,2.20
2018-05-07T10:50:31.297Z,1.80
2018-05-07T10:52:57.463Z,2.10
2018-05-07T10:55:23.513Z,2.50
2018-05-07T10:57:49.533Z,2.20
2018-05-07T11:00:15.574Z,2.80
2018-05-07T11:02:42.390Z,2.40
2018-05-07T11:05:09.177Z,2.10
2018-05-07T11:07:35.194Z,2.20
2018-05-07T11:10:01.237Z,2.00
2018-05-07T11:12:27.250Z,2.17
2018-05-07T11:14:53.309Z,2.50
2018-05-07T11:17:19.407Z,2.13
2018-05-07T11:19:45.629Z,2.53
2018-05-07T11:22:11.594Z,2.30
2018-05-07T11:24:37.624Z,2.33
2018-05-07T11:27:03.686Z,2.43
2018-05-07T11:29:30.494Z,2.63
2018-05-07T11:31:56.761Z,2.67
2018-05-07T11:34:23.542Z,2.30
2018-05-07T11:36:49.897Z,2.23
2018-05-07T11:39:16.167Z,2.40
2018-05-07T11:41:42.211Z,2.83
2018-05-07T11:44:08.461Z,2.60
2018-05-07T11:46:34.473Z,2.27
2018-05-07T11:49:00.509Z,2.20
2018-05-07T11:51:26.520Z,2.23
2018-05-07T11:53:52.965Z,1.80
2018-05-07T11:56:19.857Z,2.10
2018-05-07T11:58:46.238Z,2.20
2018-05-07T12:01:12.286Z,1.93
2018-05-07T12:03:38.303Z,2.17
2018-05-07T12:06:04.368Z,2.50
2018-05-07T12:08:31.245Z,2.40
2018-05-07T12:10:57.265Z,2.30
2018-05-07T12:13:23.309Z,2.20
2018-05-07T12:15:49.395Z,2.10
2018-05-07T12:18:15.401Z,2.03
2018-05-07T12:20:41.503Z,2.50
2018-05-07T12:23:07.517Z,2.50
2018-05-07T12:25:34.756Z,2.20
2018-05-07T12:28:00.797Z,2.27
2018-05-07T12:30:28.121Z,2.17
2018-05-07T12:32:55.119Z,1.93
2018-05-07T12:35:21.128Z,2.50
2018-05-07T12:37:47.176Z,2.60
2018-05-07T12:40:13.917Z,2.10
2018-05-07T12:42:39.979Z,2.47
2018-05-07T12:45:06.361Z,2.10
2018-05-07T12:47:32.393Z,2.53
2018-05-07T12:49:58.413Z,2.07
2018-05-07T12:52:24.446Z,2.13
2018-05-07T12:54:50.497Z,2.40
2018-05-07T12:57:16.958Z,2.40
2018-05-07T12:59:43.009Z,2.90
2018-05-07T13:02:09.034Z,1.90
2018-05-07T13:04:35.049Z,2.20
2018-05-07T13:07:01.973Z,2.67
2018-05-07T13:09:28.001Z,2.53
2018-05-07T13:11:54.114Z,2.43
2018-05-07T13:14:20.228Z,2.37
2018-05-07T13:16:46.250Z,2.90
2018-05-07T13:19:12.355Z,3.07
2018-05-07T13:21:38.369Z,2.60
2018-05-07T13:24:04.381Z,2.33
2018-05-07T13:26:30.885Z,2.77
2018-05-07T13:28:56.917Z,2.43
2018-05-07T13:31:22.959Z,3.07
2018-05-07T13:33:49.018Z,2.97
2018-05-07T13:36:15.785Z,2.60
2018-05-07T13:38:41.849Z,2.70
2018-05-07T13:41:07.878Z,2.97
2018-05-07T13:43:34.013Z,2.77
2018-05-07T13:46:00.049Z,3.70
2018-05-07T13:48:26.533Z,3.20
2018-05-07T13:50:52.617Z,3.87
2018-05-07T13:53:18.624Z,3.10
2018-05-07T13:55:44.662Z,3.00
2018-05-07T13:58:11.863Z,2.60
2018-05-07T14:00:38.112Z,3.30
2018-05-07T14:03:04.149Z,2.50
2018-05-07T14:05:30.192Z,2.70
2018-05-07T14:07:56.959Z,2.70
2018-05-07T14:10:22.993Z,3.10
2018-05-07T14:12:49.050Z,3.93
2018-05-07T14:15:15.105Z,4.10
2018-05-07T14:17:41.130Z,3.70
2018-05-07T14:20:08.089Z,3.20
2018-05-07T14:22:34.117Z,4.57
2018-05-07T14:25:00.161Z,6.30
2018-05-07T14:27:26.616Z,5.50
2018-05-07T14:29:52.825Z,5.37
2018-05-07T14:32:18.873Z,5.50
2018-05-07T14:34:44.893Z,6.00
2018-05-07T14:37:10.985Z,5.43
2018-05-07T14:39:38.049Z,6.63
2018-05-07T14:42:04.082Z,7.30
2018-05-07T14:44:30.209Z,8.60
2018-05-07T14:46:56.588Z,6.00
2018-05-07T14:49:23.104Z,6.57
2018-05-07T14:51:49.213Z,9.03
2018-05-07T14:54:15.245Z,9.63
2018-05-07T14:56:41.277Z,8.57
2018-05-07T14:59:07.296Z,9.13
2018-05-07T15:01:33.477Z,8.47
2018-05-07T15:03:59.563Z,10.10
2018-05-07T15:06:25.694Z,8.70
2018-05-07T15:08:51.706Z,7.47
2018-05-07T15:11:17.731Z,10.67
2018-05-07T15:13:44.585Z,9.27
2018-05-07T15:16:10.626Z,9.40
2018-05-07T15:18:37.401Z,10.77
2018-05-07T15:21:03.428Z,11.03
2018-05-07T15:23:29.458Z,10.90
2018-05-07T15:25:55.511Z,9.10
2018-05-07T15:28:21.569Z,9.57
2018-05-07T15:30:48.417Z,8.00
2018-05-07T15:33:14.451Z,10.20
2018-05-07T15:35:40.749Z,8.80
2018-05-07T15:38:06.777Z,8.10
2018-05-07T15:40:32.957Z,7.97
2018-05-07T15:42:59.377Z,8.33
2018-05-07T15:45:25.471Z,11.17
2018-05-07T15:47:51.494Z,9.70
2018-05-07T15:50:17.514Z,10.67
2018-05-07T15:52:43.597Z,10.07
2018-05-07T15:55:09.644Z,8.67
2018-05-07T15:57:36.069Z,10.93
2018-05-07T16:00:02.153Z,10.40
2018-05-07T16:02:28.337Z,11.93
2018-05-07T16:04:54.446Z,10.10
2018-05-07T16:07:20.945Z,8.80
2018-05-07T16:09:46.956Z,8.03
2018-05-07T16:12:13.245Z,8.97
2018-05-07T16:14:39.285Z,7.40
2018-05-07T16:17:05.554Z,7.10
2018-05-07T16:19:31.757Z,8.10
2018-05-07T16:21:57.849Z,8.33
2018-05-07T16:24:24.593Z,7.63
2018-05-07T16:26:51.827Z,6.93
2018-05-07T16:29:17.870Z,7.37
2018-05-07T16:31:44.417Z,7.90
2018-05-07T16:34:10.433Z,7.60
2018-05-07T16:36:36.554Z,8.30
2018-05-07T16:39:02.581Z,8.70
2018-05-07T16:41:28.597Z,10.10
2018-05-07T16:43:54.723Z,9.47
2018-05-07T16:46:20.789Z,9.77
2018-05-07T16:48:46.851Z,10.63
2018-05-07T16:51:12.977Z,8.93
2018-05-07T16:53:39.057Z,9.30
2018-05-07T16:56:05.170Z,8.57
2018-05-07T16:58:31.240Z,8.10
2018-05-07T17:00:57.290Z,8.03
2018-05-07T17:03:23.326Z,8.10
2018-05-07T17:05:49.344Z,8.07
2018-05-07T17:08:15.547Z,7.20
2018-05-07T17:10:41.590Z,7.40
2018-05-07T17:13:07.748Z,6.60
2018-05-07T17:15:33.817Z,5.67
2018-05-07T17:17:59.840Z,6.03
2018-05-07T17:20:25.890Z,6.27
2018-05-07T17:22:51.973Z,5.53
2018-05-07T17:25:18.005Z,5.00
2018-05-07T17:27:44.030Z,4.60
2018-05-07T17:30:10.187Z,6.37
2018-05-07T17:32:36.269Z,6.80
2018-05-07T17:35:02.372Z,5.83
2018-05-07T17:37:28.774Z,5.73
2018-05-07T17:39:54.798Z,4.83
2018-05-07T17:42:20.856Z,4.73
2018-05-07T17:44:59.314Z,4.70
2018-05-07T17:47:37.504Z,4.40
2018-05-07T17:50:04.307Z,5.40
2018-05-07T17:52:30.359Z,4.83
2018-05-07T17:54:56.466Z,4.07
2018-05-07T17:57:22.482Z,4.10
2018-05-07T17:59:48.577Z,3.80
2018-05-07T18:02:14.785Z,3.57
2018-05-07T18:04:40.839Z,3.37
2018-05-07T18:07:06.897Z,3.60
2018-05-07T18:09:33.257Z,3.43
2018-05-07T18:11:59.736Z,3.40
2018-05-07T18:14:25.942Z,2.70
2018-05-07T18:16:52.013Z,2.80
2018-05-07T18:19:18.036Z,2.83
2018-05-07T18:21:44.081Z,2.93
2018-05-07T18:24:10.142Z,3.00
2018-05-07T18:26:36.292Z,3.00
2018-05-07T18:29:02.311Z,5.13
2018-05-07T18:31:28.737Z,3.20
2018-05-07T18:33:54.808Z,4.10
2018-05-07T18:36:21.010Z,3.00
2018-05-07T18:38:47.430Z,3.37
2018-05-07T18:41:14.269Z,3.20
2018-05-07T18:43:40.285Z,3.20
2018-05-07T18:46:06.321Z,3.30
2018-05-07T18:48:32.750Z,3.27
2018-05-07T18:50:59.580Z,3.17
2018-05-07T18:53:25.740Z,3.20
2018-05-07T18:55:51.756Z,3.10
2018-05-07T18:58:18.065Z,3.57
2018-05-07T19:00:44.493Z,3.30
2018-05-07T19:03:10.549Z,2.90
2018-05-07T19:05:36.685Z,3.43
2018-05-07T19:08:03.521Z,3.23
2018-05-07T19:10:29.528Z,3.50
2018-05-07T19:12:55.613Z,3.50
2018-05-07T19:15:21.729Z,3.53
2018-05-07T19:17:47.746Z,3.90
2018-05-07T19:20:13.902Z,3.40
2018-05-07T19:22:39.941Z,3.20
2018-05-07T19:25:05.993Z,3.43
2018-05-07T19:27:32.032Z,3.40
2018-05-07T19:29:58.107Z,4.00
2018-05-07T19:32:24.146Z,3.87
2018-05-07T19:34:50.157Z,3.87
2018-05-07T19:37:16.561Z,4.17
2018-05-07T19:39:42.685Z,4.70
2018-05-07T19:42:08.684Z,4.40
2018-05-07T19:44:34.737Z,5.23
2018-05-07T19:47:00.781Z,5.23
2018-05-07T19:49:26.863Z,6.00
2018-05-07T19:51:52.846Z,4.93
2018-05-07T19:54:19.294Z,5.47
2018-05-07T19:56:45.345Z,6.43
2018-05-07T19:59:11.378Z,7.47
2018-05-07T20:01:37.401Z,6.73
2018-05-07T20:04:03.418Z,4.97
2018-05-07T20:06:29.586Z,4.50
2018-05-07T20:08:55.909Z,4.93
2018-05-07T20:11:22.693Z,5.43
2018-05-07T20:13:48.713Z,6.50
2018-05-07T20:16:14.725Z,10.03
2018-05-07T20:18:40.745Z,7.60
2018-05-07T20:21:06.812Z,4.17
2018-05-07T20:23:32.857Z,9.43
2018-05-07T20:25:58.889Z,6.53
2018-05-07T20:28:25.159Z,7.77
2018-05-07T20:30:51.201Z,7.80
2018-05-07T20:33:17.405Z,8.57
2018-05-07T20:35:43.961Z,13.97
2018-05-07T20:38:09.999Z,15.77
2018-05-07T20:40:36.080Z,13.93
2018-05-07T20:43:02.637Z,10.83
2018-05-07T20:45:28.702Z,9.47
2018-05-07T20:47:54.729Z,8.80
2018-05-07T20:50:20.889Z,7.27
2018-05-07T20:52:46.909Z,7.20
2018-05-07T20:55:12.957Z,5.30
2018-05-07T20:57:39.106Z,6.70
2018-05-07T21:00:05.178Z,6.67
2018-05-07T21:02:31.245Z,7.80
2018-05-07T21:04:57.291Z,4.63
2018-05-07T21:07:23.425Z,5.20
2018-05-07T21:09:49.461Z,5.30
2018-05-07T21:12:15.466Z,5.20
2018-05-07T21:14:41.509Z,4.40
2018-05-07T21:17:07.700Z,4.40
2018-05-07T21:19:33.810Z,4.57
2018-05-07T21:22:00.604Z,4.40
2018-05-07T21:24:26.677Z,3.77
2018-05-07T21:26:52.701Z,4.03
2018-05-07T21:29:18.768Z,4.37
2018-05-07T21:31:44.817Z,4.50
2018-05-07T21:34:11.580Z,4.30
2018-05-07T21:36:37.618Z,3.67
2018-05-07T21:39:03.702Z,4.00
2018-05-07T21:41:29.793Z,4.40
2018-05-07T21:43:56.337Z,4.10
2018-05-07T21:46:22.361Z,3.73
2018-05-07T21:48:48.369Z,4.40
2018-05-07T21:51:15.006Z,4.43
2018-05-07T21:53:41.099Z,4.23
2018-05-07T21:56:07.124Z,4.03
2018-05-07T21:58:33.204Z,4.70
2018-05-07T22:00:59.263Z,4.40
2018-05-07T22:03:25.349Z,4.63
2018-05-07T22:05:51.417Z,4.60
2018-05-07T22:08:17.465Z,4.40
2018-05-07T22:10:43.502Z,4.57
2018-05-07T22:13:09.539Z,4.80
2018-05-07T22:15:35.676Z,4.43
2018-05-07T22:18:02.223Z,4.13
2018-05-07T22:20:28.241Z,4.70
2018-05-07T22:22:54.269Z,5.03
2018-05-07T22:25:20.308Z,4.70
2018-05-07T22:27:46.369Z,4.40
2018-05-07T22:30:12.738Z,4.93
2018-05-07T22:32:38.813Z,4.60
2018-05-07T22:35:04.842Z,4.37
2018-05-07T22:37:30.865Z,4.57
2018-05-07T22:39:57.580Z,4.77
2018-05-07T22:42:24.057Z,4.83
2018-05-07T22:44:50.569Z,4.80
2018-05-07T22:47:16.668Z,4.60
2018-05-07T22:49:42.788Z,4.70
2018-05-07T22:52:08.775Z,5.03
2018-05-07T22:54:35.644Z,4.93
2018-05-07T22:57:01.697Z,4.90
2018-05-07T22:59:27.709Z,5.00
2018-05-07T23:01:54.783Z,4.80
2018-05-07T23:04:21.453Z,4.43
2018-05-07T23:06:47.467Z,4.60
2018-05-07T23:09:13.684Z,4.63
2018-05-07T23:11:39.746Z,5.00
2018-05-07T23:14:05.905Z,4.90
2018-05-07T23:16:31.936Z,5.20
2018-05-07T23:18:57.985Z,4.93
2018-05-07T23:21:24.237Z,4.83
2018-05-07T23:23:50.709Z,5.20
2018-05-07T23:26:17.700Z,5.23
2018-05-07T23:28:43.729Z,5.53
2018-05-07T23:31:09.746Z,5.50
2018-05-07T23:33:35.805Z,5.70
2018-05-07T23:36:01.866Z,5.40
2018-05-07T23:38:28.251Z,5.10
2018-05-07T23:40:54.265Z,5.33
2018-05-07T23:43:20.297Z,5.40
2018-05-07T23:45:46.406Z,5.20
2018-05-07T23:48:12.445Z,6.07
2018-05-07T23:50:38.630Z,6.00
2018-05-07T23:53:04.633Z,6.33
2018-05-07T23:55:30.680Z,6.53
2018-05-07T23:57:56.689Z,6.70
